Aviation Digital Data Service (ADDS)

Output produced by METARs form (0749 UTC 20 February 2018)
found at http://www.aviationweather.gov/adds/metars/
 
METAR text: KSBP 200656Z 29007KT 10SM CLR 06/M03 A3012 RMK AO2 SLP200 T00611028
Conditions at: KSBP (SAN LUIS OBISPO , CA, US) observed 0656 UTC 20 February 2018
Temperature: 6.1°C (43°F)
Dewpoint: -2.8°C (27°F) [RH = 53%]
Pressure (altimeter): 30.12 inches Hg (1020.1 mb)
[Sea-level pressure: 1020.0 mb]
Winds: from the WNW (290 degrees) at 8 MPH (7 knots; 3.6 m/s)
Visibility: 10 or more miles (16+ km)
Ceiling: at least 12,000 feet AGL
Clouds: sky clear below 12,000 feet AGL
Weather: no significant weather observed at this time

METAR text: KSBP 200556Z 32006KT 10SM CLR 06/M03 A3010 RMK AO2 SLP194 T00561028 10117 20056 51024
Conditions at: KSBP (SAN LUIS OBISPO , CA, US) observed 0556 UTC 20 February 2018
Temperature: 5.6°C (42°F)
Dewpoint: -2.8°C (27°F) [RH = 55%]
Pressure (altimeter): 30.10 inches Hg (1019.4 mb)
[Sea-level pressure: 1019.4 mb]
Winds: from the NW (320 degrees) at 7 MPH (6 knots; 3.1 m/s)
Visibility: 10 or more miles (16+ km)
Ceiling: at least 12,000 feet AGL
Clouds: sky clear below 12,000 feet AGL
Weather: no significant weather observed at this time

METAR text: KSBP 200456Z 31005KT 10SM CLR 06/M01 A3008 RMK AO2 SLP187 T00611006
Conditions at: KSBP (SAN LUIS OBISPO , CA, US) observed 0456 UTC 20 February 2018
Temperature: 6.1°C (43°F)
Dewpoint: -0.6°C (31°F) [RH = 62%]
Pressure (altimeter): 30.08 inches Hg (1018.7 mb)
[Sea-level pressure: 1018.7 mb]
Winds: from the NW (310 degrees) at 6 MPH (5 knots; 2.6 m/s)
Visibility: 10 or more miles (16+ km)
Ceiling: at least 12,000 feet AGL
Clouds: sky clear below 12,000 feet AGL
Weather: no significant weather observed at this time

METAR text: KSBP 200356Z 33006KT 10SM CLR 08/01 A3005 RMK AO2 SLP177 T00780006
Conditions at: KSBP (SAN LUIS OBISPO , CA, US) observed 0356 UTC 20 February 2018
Temperature: 7.8°C (46°F)
Dewpoint: 0.6°C (33°F) [RH = 60%]
Pressure (altimeter): 30.05 inches Hg (1017.7 mb)
[Sea-level pressure: 1017.7 mb]
Winds: from the NNW (330 degrees) at 7 MPH (6 knots; 3.1 m/s)
Visibility: 10 or more miles (16+ km)
Ceiling: at least 12,000 feet AGL
Clouds: sky clear below 12,000 feet AGL
Weather: no significant weather observed at this time

METAR text: KSBP 200256Z 31009KT 10SM CLR 09/01 A3003 RMK AO2 SLP170 T00890006 53017
Conditions at: KSBP (SAN LUIS OBISPO , CA, US) observed 0256 UTC 20 February 2018
Temperature: 8.9°C (48°F)
Dewpoint: 0.6°C (33°F) [RH = 56%]
Pressure (altimeter): 30.03 inches Hg (1017.0 mb)
[Sea-level pressure: 1017.0 mb]
Winds: from the NW (310 degrees) at 10 MPH (9 knots; 4.7 m/s)
Visibility: 10 or more miles (16+ km)
Ceiling: at least 12,000 feet AGL
Clouds: sky clear below 12,000 feet AGL
Weather: no significant weather observed at this time

METAR text: KSBP 200156Z 30016KT 10SM CLR 09/01 A3001 RMK AO2 PK WND 30032/0102 SLP162 T00940006
Conditions at: KSBP (SAN LUIS OBISPO , CA, US) observed 0156 UTC 20 February 2018
Temperature: 9.4°C (49°F)
Dewpoint: 0.6°C (33°F) [RH = 54%]
Pressure (altimeter): 30.01 inches Hg (1016.3 mb)
[Sea-level pressure: 1016.2 mb]
Winds: from the WNW (300 degrees) at 18 MPH (16 knots; 8.3 m/s)
Visibility: 10 or more miles (16+ km)
Ceiling: at least 12,000 feet AGL
Clouds: sky clear below 12,000 feet AGL
Weather: no significant weather observed at this time

METAR text: KSBP 200056Z 29018G24KT 10SM CLR 11/01 A2998 RMK AO2 PK WND 30031/0031 SLP154 T01110011
Conditions at: KSBP (SAN LUIS OBISPO , CA, US) observed 0056 UTC 20 February 2018
Temperature: 11.1°C (52°F)
Dewpoint: 1.1°C (34°F) [RH = 50%]
Pressure (altimeter): 29.98 inches Hg (1015.3 mb)
[Sea-level pressure: 1015.4 mb]
Winds: from the WNW (290 degrees) at 21 MPH (18 knots; 9.4 m/s)
gusting to 28 MPH (24 knots; 12.5 m/s)
Visibility: 10 or more miles (16+ km)
Ceiling: at least 12,000 feet AGL
Clouds: sky clear below 12,000 feet AGL
Weather: no significant weather observed at this time

METAR text: KSBP 192356Z 29021G29KT 10SM FEW110 12/00 A2998 RMK AO2 PK WND 31031/2304 SLP152 T01170000 10139 20100 55002
Conditions at: KSBP (SAN LUIS OBISPO , CA, US) observed 2356 UTC 19 February 2018
Temperature: 11.7°C (53°F)
Dewpoint: 0.0°C (32°F) [RH = 44%]
Pressure (altimeter): 29.98 inches Hg (1015.3 mb)
[Sea-level pressure: 1015.2 mb]
Winds: from the WNW (290 degrees) at 24 MPH (21 knots; 10.9 m/s)
gusting to 33 MPH (29 knots; 15.1 m/s)
Visibility: 10 or more miles (16+ km)
Ceiling: at least 12,000 feet AGL
Clouds: few clouds at 11000 feet AGL
Weather: no significant weather observed at this time